SLVR

Viru Viru International Airport

Santa Cruz, Bolivia
TAF SLVR 221050Z 2212/2312 34015G25KT 9999 SCT020 TX34/2219Z TN23/ 2310Z TEMPO 2219/2223 FEW030CB BECMG 2223/2301 34008KT NSC
Issued Valid From Valid To
Jan-22 @ 10:50 UTC
(7 hours ago)
Jan-22 @ 12:00 UTC
(6 hours ago)
Jan-23 @ 12:00 UTC
(in 18 hours)
Jan-22 @ 12:00 to Jan-22 @ 23:00
TAF SLVR 221050Z 2212/2312 34015G25KT 9999 SCT020 TX34/2219Z TN23/ 2310Z
Wind Visibility Clouds
340° at 15 knots
 Gusting to 25 knots
10,000+ meters
  • Scattered at 2,000' AGL
Temporary Jan-22 @ 19:00 to Jan-22 @ 23:00
TEMPO 2219/2223 FEW030CB
Clouds
  • Few at 3,000' AGL
Becoming Jan-22 @ 23:00 to Jan-23 @ 12:00
BECMG 2223/2301 34008KT NSC
Wind Visibility Clouds
340° at 8 knots 10,000+ meters
  • No significant clouds
TAF SLVR 221050Z 2212/2312 34015G25KT 9999 SCT020 TX34/2219Z TN23/ 2310Z TEMPO 2219/2223 FEW030CB BECMG 2223/2301 34008KT NSC
Issued Jan-22 @ 10:50 UTC
(7 hours ago)
Valid From Jan-22 @ 12:00 UTC
(6 hours ago)
Valid To Jan-23 @ 12:00 UTC
(in 18 hours)
Jan-22 @ 12:00 - Jan-22 @ 23:00
Wind Visibility
340° at 15 knots
 Gusting to 25 knots
10,000+ meters
Clouds
  • Scattered at 2,000' AGL
Temporary Jan-22 @ 19:00 - Jan-22 @ 23:00
Clouds
  • Few at 3,000' AGL
Becoming Jan-22 @ 23:00 - Jan-23 @ 12:00
Wind Visibility
340° at 8 knots 10,000+ meters
Clouds
  • No significant clouds